Terminal Aerodrome Forecast
Issued by NWS

Home | Current Version | Previous Version | Graphics & Text | Print | Product List | Glossary On
Versions: 1 2 3 4 5 6 7 8 9 10 11 12 13 14 15 16
000
FTUS43 KICT 301136 AAC
TAFSLN
TAF AMD
KSLN 301136Z 3012/0112 31010KT P6SM OVC007
      TEMPO 3012/3016 5SM BR OVC004
     FM301600 27015G22KT P6SM SCT008 BKN012
     FM301900 28015G23KT P6SM SCT012 BKN030
     FM010100 30011KT P6SM SCT020 BKN035
     FM010600 30012KT P6SM BKN020=

USA.gov is the U.S. government's official web portal to all federal, state and local government web resources and services.